Du har inga inställningar för hoppväder.nu

Hoppväder.nu

Senast uppdaterat 02:16

UTC-tid

2018-01-17 kl. 01:16


Sol och måne

Solen går upp 8:28 och går ner 15:38 (beräknade cirkatider)
Nästa fullmåne blir om 14 dagar (2018-01-31)

METAR

ESKN (Skavsta)
(26 minuter sedan)
ESKN 170050Z 13009KT 7000 -RA OVC005 01/00 Q0985 RWY 26 SLUSH 11-25 PCT 1 MM BA GOOD=



ESSB (Bromma)
(26 minuter sedan)
ESSB 170050Z AUTO 11015KT 4100 -SN FEW002/// BKN009/// OVC017/// M01/M02 Q0988=



ESOE (Örebro)
(26 minuter sedan)
ESOE 170050Z AUTO 08006KT 1200 R01/P2000N R19/P2000N BR VV002 01/01 Q0984=



ESSL (Linköping)
(26 minuter sedan)
ESSL 170050Z AUTO 14005KT 7000 -SN FEW002/// BKN004/// OVC012/// 00/00 Q0983=



ESSP (Norrköping)
(26 minuter sedan)
ESSP 170050Z AUTO 13007KT 5000 BR OVC003/// 02/01 Q0984=



TAF

ESKN (Skavsta)
(106 minuter sedan)
ESKN 162330Z 1700/1724 14009KT 7000 -SNRA OVC007 TEMPO 1700/1706 2500 SNRA BKN004 TEMPO 1706/1724 2500 SNRA OVC012=



ESSB (Bromma)
(316 minuter sedan)
ESSB 162000Z NIL=



ESOE (Örebro)
(51 minuter sedan)
ESOE AAB 170025Z 1700/1701 10005KT 9999 SCT003 BKN015 PROB40 1700/1701 2500 BR BKN003=



ESSL (Linköping)
(240 minuter sedan)
ESSL AAA 162116Z 1621/1622 14007KT 9999 OVC004=



ESSP (Norrköping)
(240 minuter sedan)
ESSP AAA 162116Z 1621/1623 14012KT 8000 OVC003 PROB40 1621/1623 2500 BR=





Kodnycklar till TAF och METAR






LHP

(Nyköping är område G1b i Södra delen)

Prognos är inte uppdaterad




Spotting

Hur fungerar spotthjälpen och Vindkartan?

Markvind är ca 0 m/s.



Vindkartan

Senast uppdaterad 02:16



All data kommer från LFV.se